ACA1173 CYDF-CYYZ
Flight info
| Callsign | ACA1173 |
|---|---|
| Flight time | N/A |
| Altitude | 36000 |
| Route | HITOR ANATI POLTY IMEBA9 |
| Aircraft | B38M/M-SDE1FGHILORVWXY/HB1 |
Departure
| Time | 2026-05-04 22:30 |
|---|---|
| Airport | Deer Lake Airport (CYDF) |
Arrival
| Time | N/A |
|---|---|
| Airport | Toronto Pearson International Airport (CYYZ) |
| Time | Latitude | Longitude | Altitude | Speed | Heading |
|---|---|---|---|---|---|
| 2026-05-04 22:02 | 49.20970 | -57.39836 | 57 ft | 0 kts | 317° |
| 2026-05-04 22:20 | 49.20964 | -57.39829 | 45 ft | 3 kts | 320° |
| 2026-05-04 22:20 | 49.20948 | -57.39812 | 52 ft | 3 kts | 337° |
| 2026-05-04 22:21 | 49.20930 | -57.39805 | 49 ft | 3 kts | 6° |
| 2026-05-04 22:21 | 49.20914 | -57.39814 | 52 ft | 2 kts | 43° |
| 2026-05-04 22:21 | 49.20911 | -57.39819 | 50 ft | 1 kts | 47° |
| 2026-05-04 22:25 | 49.20913 | -57.39815 | 57 ft | 2 kts | 47° |
| 2026-05-04 22:25 | 49.20940 | -57.39770 | 57 ft | 8 kts | 47° |
| 2026-05-04 22:26 | 49.20989 | -57.39689 | 56 ft | 11 kts | 46° |
| 2026-05-04 22:26 | 49.21053 | -57.39589 | 57 ft | 16 kts | 46° |
| 2026-05-04 22:26 | 49.21115 | -57.39483 | 56 ft | 11 kts | 64° |
| 2026-05-04 22:26 | 49.21096 | -57.39397 | 55 ft | 9 kts | 136° |
| 2026-05-04 22:27 | 49.21050 | -57.39327 | 59 ft | 10 kts | 135° |
| 2026-05-04 22:27 | 49.21050 | -57.39231 | 59 ft | 13 kts | 51° |
| 2026-05-04 22:27 | 49.21140 | -57.39086 | 58 ft | 24 kts | 46° |
| 2026-05-04 22:27 | 49.21269 | -57.38880 | 64 ft | 28 kts | 46° |
| 2026-05-04 22:28 | 49.21394 | -57.38680 | 68 ft | 26 kts | 46° |
| 2026-05-04 22:28 | 49.21524 | -57.38476 | 81 ft | 26 kts | 46° |
| 2026-05-04 22:28 | 49.21624 | -57.38330 | 88 ft | 13 kts | 22° |
| 2026-05-04 22:28 | 49.21680 | -57.38277 | 86 ft | 6 kts | 86° |
| 2026-05-04 22:29 | 49.21669 | -57.38254 | 86 ft | 1 kts | 156° |
| 2026-05-04 22:29 | 49.21659 | -57.38257 | 87 ft | 3 kts | 205° |
| 2026-05-04 22:29 | 49.21641 | -57.38288 | 87 ft | 4 kts | 227° |
| 2026-05-04 22:29 | 49.21639 | -57.38290 | 86 ft | 0 kts | 227° |
| 2026-05-04 22:30 | 49.21606 | -57.38345 | 86 ft | 33 kts | 226° |
| 2026-05-04 22:30 | 49.21249 | -57.38912 | 59 ft | 112 kts | 225° |
| 2026-05-04 22:30 | 49.20561 | -57.39991 | 199 ft | 162 kts | 225° |
| 2026-05-04 22:30 | 49.19757 | -57.41265 | 1054 ft | 160 kts | 225° |
| 2026-05-04 22:31 | 49.19017 | -57.42514 | 1983 ft | 165 kts | 226° |
| 2026-05-04 22:31 | 49.18213 | -57.43903 | 2549 ft | 184 kts | 226° |
| 2026-05-04 22:31 | 49.17508 | -57.45664 | 3031 ft | 212 kts | 253° |
| 2026-05-04 22:31 | 49.17585 | -57.47976 | 3848 ft | 229 kts | 287° |
| 2026-05-04 22:32 | 49.18404 | -57.50169 | 4603 ft | 247 kts | 302° |
| 2026-05-04 22:32 | 49.19429 | -57.52359 | 5406 ft | 259 kts | 302° |
| 2026-05-04 22:32 | 49.20296 | -57.54777 | 6321 ft | 258 kts | 281° |
| 2026-05-04 22:32 | 49.20406 | -57.57499 | 7245 ft | 260 kts | 264° |
| 2026-05-04 22:33 | 49.20360 | -57.60303 | 8136 ft | 267 kts | 266° |
| 2026-05-04 22:33 | 49.20325 | -57.63169 | 9074 ft | 272 kts | 266° |
| 2026-05-04 22:33 | 49.20291 | -57.66086 | 9937 ft | 276 kts | 265° |
| 2026-05-04 22:33 | 49.20254 | -57.69079 | 10606 ft | 289 kts | 265° |
| 2026-05-04 22:34 | 49.20216 | -57.72235 | 11133 ft | 304 kts | 265° |
| 2026-05-04 22:34 | 49.20174 | -57.75533 | 11751 ft | 316 kts | 266° |
| 2026-05-04 22:34 | 49.20132 | -57.78938 | 12427 ft | 325 kts | 265° |
| 2026-05-04 22:34 | 49.20087 | -57.82411 | 13208 ft | 328 kts | 265° |
| 2026-05-04 22:35 | 49.20041 | -57.85880 | 13878 ft | 333 kts | 265° |
| 2026-05-04 22:35 | 49.19993 | -57.89447 | 14583 ft | 337 kts | 265° |
| 2026-05-04 22:35 | 49.19943 | -57.93037 | 15279 ft | 340 kts | 265° |
| 2026-05-04 22:35 | 49.19892 | -57.96677 | 15987 ft | 343 kts | 265° |
| 2026-05-04 22:36 | 49.19838 | -58.00349 | 16645 ft | 347 kts | 265° |
| 2026-05-04 22:36 | 49.19783 | -58.04058 | 17329 ft | 350 kts | 265° |
| 2026-05-04 22:36 | 49.19726 | -58.07795 | 17943 ft | 353 kts | 264° |
| 2026-05-04 22:36 | 49.19668 | -58.11561 | 18542 ft | 355 kts | 264° |
| 2026-05-04 22:37 | 49.19608 | -58.15351 | 19101 ft | 358 kts | 264° |
| 2026-05-04 22:37 | 49.19547 | -58.19166 | 19675 ft | 359 kts | 264° |
| 2026-05-04 22:37 | 49.19484 | -58.22992 | 20259 ft | 361 kts | 264° |
| 2026-05-04 22:37 | 49.19419 | -58.26842 | 20830 ft | 363 kts | 264° |
| 2026-05-04 22:38 | 49.19353 | -58.30710 | 21363 ft | 365 kts | 263° |
| 2026-05-04 22:38 | 49.19285 | -58.34606 | 21919 ft | 367 kts | 263° |
| 2026-05-04 22:38 | 49.19216 | -58.38523 | 22468 ft | 369 kts | 263° |
| 2026-05-04 22:38 | 49.19144 | -58.42457 | 22978 ft | 371 kts | 263° |
| 2026-05-04 22:39 | 49.19071 | -58.46417 | 23403 ft | 374 kts | 263° |
| 2026-05-04 22:39 | 49.18996 | -58.50405 | 23802 ft | 377 kts | 263° |
| 2026-05-04 22:39 | 49.18919 | -58.54428 | 24207 ft | 379 kts | 263° |
| 2026-05-04 22:39 | 49.18840 | -58.58472 | 24590 ft | 382 kts | 263° |
| 2026-05-04 22:40 | 49.18760 | -58.62496 | 24971 ft | 385 kts | 263° |
| 2026-05-04 22:40 | 49.18678 | -58.66606 | 25351 ft | 388 kts | 263° |
| 2026-05-04 22:40 | 49.18593 | -58.70732 | 25727 ft | 390 kts | 263° |
| 2026-05-04 22:40 | 49.18505 | -58.74895 | 26095 ft | 393 kts | 263° |
| 2026-05-04 22:41 | 49.18416 | -58.79081 | 26462 ft | 395 kts | 263° |
| 2026-05-04 22:41 | 49.18325 | -58.83293 | 26829 ft | 398 kts | 263° |
| 2026-05-04 22:41 | 49.18232 | -58.87530 | 27198 ft | 400 kts | 263° |
| 2026-05-04 22:41 | 49.18136 | -58.91800 | 27538 ft | 402 kts | 263° |
| 2026-05-04 22:42 | 49.18039 | -58.96084 | 27891 ft | 405 kts | 263° |
| 2026-05-04 22:42 | 49.17939 | -59.00395 | 28244 ft | 407 kts | 263° |
| 2026-05-04 22:42 | 49.17837 | -59.04736 | 28599 ft | 409 kts | 263° |
| 2026-05-04 22:42 | 49.17733 | -59.09091 | 28919 ft | 412 kts | 263° |
| 2026-05-04 22:43 | 49.17626 | -59.13481 | 29235 ft | 414 kts | 263° |
| 2026-05-04 22:43 | 49.17518 | -59.17897 | 29538 ft | 417 kts | 263° |
| 2026-05-04 22:43 | 49.17406 | -59.22330 | 29797 ft | 419 kts | 262° |
| 2026-05-04 22:43 | 49.17293 | -59.26792 | 30037 ft | 421 kts | 262° |
| 2026-05-04 22:44 | 49.17177 | -59.31280 | 30284 ft | 424 kts | 262° |
| 2026-05-04 22:44 | 49.17061 | -59.35724 | 30533 ft | 426 kts | 262° |
| 2026-05-04 22:44 | 49.16939 | -59.40320 | 30786 ft | 428 kts | 262° |
| 2026-05-04 22:44 | 49.16818 | -59.44806 | 31017 ft | 430 kts | 262° |
| 2026-05-04 22:45 | 49.16693 | -59.49382 | 31265 ft | 432 kts | 262° |
| 2026-05-04 22:45 | 49.16435 | -59.58596 | 31789 ft | 435 kts | 262° |
| 2026-05-04 22:45 | 49.16304 | -59.63210 | 32119 ft | 435 kts | 262° |
| 2026-05-04 22:46 | 49.16170 | -59.67827 | 32461 ft | 434 kts | 262° |
| 2026-05-04 22:46 | 49.16034 | -59.72437 | 32773 ft | 435 kts | 262° |
| 2026-05-04 22:46 | 49.15897 | -59.77050 | 33089 ft | 434 kts | 262° |
| 2026-05-04 22:46 | 49.15758 | -59.81666 | 33390 ft | 434 kts | 262° |
| 2026-05-04 22:47 | 49.15617 | -59.86271 | 33641 ft | 435 kts | 261° |
| 2026-05-04 22:47 | 49.15474 | -59.90889 | 33889 ft | 435 kts | 261° |
| 2026-05-04 22:47 | 49.15330 | -59.95494 | 34139 ft | 434 kts | 261° |
| 2026-05-04 22:47 | 49.15183 | -60.00110 | 34366 ft | 435 kts | 261° |
| 2026-05-04 22:48 | 49.15035 | -60.04721 | 34599 ft | 435 kts | 261° |
| 2026-05-04 22:48 | 49.14885 | -60.09333 | 34860 ft | 435 kts | 261° |
| 2026-05-04 22:48 | 49.14735 | -60.13891 | 35108 ft | 435 kts | 261° |
| 2026-05-04 22:48 | 49.14581 | -60.18503 | 35345 ft | 434 kts | 261° |
| 2026-05-04 22:49 | 49.14426 | -60.23100 | 35593 ft | 434 kts | 261° |
| 2026-05-04 22:49 | 49.14269 | -60.27704 | 35838 ft | 433 kts | 261° |
| 2026-05-04 22:49 | 49.14110 | -60.32297 | 36065 ft | 433 kts | 261° |
| 2026-05-04 22:49 | 49.13950 | -60.36893 | 36280 ft | 433 kts | 261° |
| 2026-05-04 22:50 | 49.13788 | -60.41478 | 36503 ft | 432 kts | 261° |
| 2026-05-04 22:50 | 49.13624 | -60.46063 | 36730 ft | 432 kts | 261° |
| 2026-05-04 22:50 | 49.13458 | -60.50645 | 36930 ft | 432 kts | 261° |
| 2026-05-04 22:50 | 49.13291 | -60.55215 | 37138 ft | 431 kts | 261° |
| 2026-05-04 22:51 | 49.13122 | -60.59780 | 37330 ft | 431 kts | 261° |
| 2026-05-04 22:51 | 49.12952 | -60.64342 | 37434 ft | 431 kts | 261° |
| 2026-05-04 22:51 | 49.12606 | -60.73463 | 37414 ft | 429 kts | 261° |
| 2026-05-04 22:52 | 49.12253 | -60.82565 | 37426 ft | 429 kts | 261° |
| 2026-05-04 22:52 | 49.11894 | -60.91666 | 37418 ft | 430 kts | 261° |
| 2026-05-04 22:53 | 49.11527 | -61.00781 | 37434 ft | 430 kts | 261° |
| 2026-05-04 22:53 | 49.11154 | -61.09842 | 37424 ft | 431 kts | 261° |
| 2026-05-04 22:54 | 49.10771 | -61.18976 | 37435 ft | 431 kts | 261° |
| 2026-05-04 22:54 | 49.10382 | -61.28109 | 37430 ft | 431 kts | 261° |
| 2026-05-04 22:55 | 49.09984 | -61.37255 | 37442 ft | 432 kts | 261° |